Time;durP1;ratioP1;P1;durP2;ratioP2;P2;SDS_P1;SDS_P2;PMS_P1;PMS_P2;Temp;Humidity;BMP_temperature;BMP_pressure;BME280_temperature;BME280_humidity;BME280_pressure;Samples;Min_cycle;Max_cycle;Signal;HPM_P1;HPM_P2
2023/07/26 00:01:48;;;;;;;;;;;24.30;58.10;;;;;;5082568;28;19912;-37
2023/07/26 00:04:14;;;;;;;;;;;24.30;58.00;;;;;;5082113;28;19912;-39
2023/07/26 00:06:40;;;;;;;;;;;24.30;58.00;;;;;;5080588;28;19912;-37
2023/07/26 00:09:08;;;;;;;;;;;24.30;58.00;;;;;;5057915;28;19924;-38
2023/07/26 00:11:34;;;;;;;;;;;24.30;57.90;;;;;;5082153;28;20305;-37
2023/07/26 00:14:00;;;;;;;;;;;24.20;57.90;;;;;;5082211;28;19919;-37
2023/07/26 00:16:25;;;;;;;;;;;24.20;58.00;;;;;;5082098;28;19908;-38
2023/07/26 00:18:51;;;;;;;;;;;24.20;57.90;;;;;;5081591;28;19955;-37
2023/07/26 00:21:17;;;;;;;;;;;24.10;57.70;;;;;;5082168;28;20481;-37
2023/07/26 00:23:43;;;;;;;;;;;24.10;57.80;;;;;;5080925;28;19923;-37
2023/07/26 00:26:09;;;;;;;;;;;24.10;57.80;;;;;;5082638;28;19912;-37
2023/07/26 00:28:35;;;;;;;;;;;24.10;57.90;;;;;;5082044;28;20546;-38
2023/07/26 00:31:01;;;;;;;;;;;24.10;57.90;;;;;;5082330;28;19927;-37
2023/07/26 00:33:27;;;;;;;;;;;24.10;58.00;;;;;;5080345;28;19935;-37
2023/07/26 00:35:52;;;;;;;;;;;24.00;58.00;;;;;;5082260;28;19947;-37
2023/07/26 00:38:18;;;;;;;;;;;24.00;58.00;;;;;;5085985;28;20281;-37
2023/07/26 00:40:44;;;;;;;;;;;24.00;58.10;;;;;;5077954;28;20058;-38
2023/07/26 00:43:10;;;;;;;;;;;24.00;58.10;;;;;;5086375;28;19908;-37
2023/07/26 00:45:38;;;;;;;;;;;24.00;58.10;;;;;;5084723;28;19912;-37
2023/07/26 00:48:05;;;;;;;;;;;24.00;58.00;;;;;;5081676;28;20448;-37
2023/07/26 00:50:31;;;;;;;;;;;23.90;57.90;;;;;;5086148;28;19926;-36
2023/07/26 00:52:57;;;;;;;;;;;23.90;57.80;;;;;;5086137;28;19908;-37
2023/07/26 00:55:23;;;;;;;;;;;23.90;57.90;;;;;;5086029;28;19912;-37
2023/07/26 00:57:52;;;;;;;;;;;23.80;57.80;;;;;;5084735;28;20295;-37
2023/07/26 01:00:19;;;;;;;;;;;23.80;57.90;;;;;;5066964;28;20422;-37
2023/07/26 01:02:46;;;;;;;;;;;23.80;57.70;;;;;;5085984;28;19919;-36
2023/07/26 01:05:12;;;;;;;;;;;23.80;57.90;;;;;;5068030;28;20420;-37
2023/07/26 01:07:49;;;;;;;;;;;23.80;57.90;;;;;;5082162;28;19919;-37
2023/07/26 01:10:22;;;;;;;;;;;23.70;57.90;;;;;;5085249;28;19924;-36
2023/07/26 01:12:54;;;;;;;;;;;23.70;57.90;;;;;;5061226;28;19912;-37
2023/07/26 01:15:22;;;;;;;;;;;23.70;59.40;;;;;;5067695;28;19916;-37
2023/07/26 01:17:48;;;;;;;;;;;23.70;62.20;;;;;;5085464;28;19919;-37
2023/07/26 01:20:14;;;;;;;;;;;23.70;63.50;;;;;;5067048;28;19947;-37
2023/07/26 01:22:40;;;;;;;;;;;23.70;63.10;;;;;;5078070;28;19909;-37
2023/07/26 01:25:07;;;;;;;;;;;23.70;63.20;;;;;;5085667;28;19912;-36
2023/07/26 01:27:33;;;;;;;;;;;23.70;63.50;;;;;;5085179;28;19916;-37
2023/07/26 01:30:01;;;;;;;;;;;23.70;63.40;;;;;;5085160;28;19947;-37
2023/07/26 01:32:27;;;;;;;;;;;23.70;63.50;;;;;;5084553;28;19913;-37
2023/07/26 01:34:54;;;;;;;;;;;23.70;63.40;;;;;;5047032;28;19936;-37
2023/07/26 01:37:20;;;;;;;;;;;23.70;63.60;;;;;;5085002;28;19916;-36
2023/07/26 01:39:47;;;;;;;;;;;23.70;63.80;;;;;;5085181;28;19912;-37
2023/07/26 01:42:13;;;;;;;;;;;23.70;63.90;;;;;;5066383;28;19979;-37
2023/07/26 01:44:39;;;;;;;;;;;23.70;64.00;;;;;;5077207;28;19919;-37
2023/07/26 01:47:05;;;;;;;;;;;23.80;64.20;;;;;;5085174;28;19916;-37
2023/07/26 01:49:31;;;;;;;;;;;23.80;64.40;;;;;;5083991;28;19942;-37
2023/07/26 01:51:57;;;;;;;;;;;23.80;64.50;;;;;;5085028;28;19908;-37
2023/07/26 01:54:23;;;;;;;;;;;23.80;64.60;;;;;;5084506;28;19943;-37
2023/07/26 01:56:49;;;;;;;;;;;23.80;64.70;;;;;;5084788;28;19912;-37
2023/07/26 01:59:15;;;;;;;;;;;23.80;64.70;;;;;;5084871;28;19970;-37
2023/07/26 02:01:40;;;;;;;;;;;23.80;64.90;;;;;;5080794;28;19912;-37
2023/07/26 02:04:06;;;;;;;;;;;23.80;65.00;;;;;;5085014;28;19912;-37
2023/07/26 02:06:32;;;;;;;;;;;23.80;65.00;;;;;;5084526;28;19917;-36
2023/07/26 02:08:58;;;;;;;;;;;23.90;65.20;;;;;;5081227;28;19927;-37
2023/07/26 02:11:24;;;;;;;;;;;23.90;65.30;;;;;;5066091;28;19913;-37
2023/07/26 02:13:50;;;;;;;;;;;23.90;65.30;;;;;;5083665;28;19934;-37
2023/07/26 02:16:16;;;;;;;;;;;23.90;65.40;;;;;;5084011;28;20499;-37
2023/07/26 02:18:42;;;;;;;;;;;23.90;65.40;;;;;;5084665;28;19932;-37
2023/07/26 02:21:08;;;;;;;;;;;24.00;65.70;;;;;;5084497;28;19963;-37
2023/07/26 02:23:34;;;;;;;;;;;24.00;65.80;;;;;;5084618;28;19919;-37
2023/07/26 02:26:00;;;;;;;;;;;24.00;65.90;;;;;;5084142;28;20027;-36
2023/07/26 02:28:26;;;;;;;;;;;24.00;65.90;;;;;;5066049;28;19955;-37
2023/07/26 02:30:52;;;;;;;;;;;24.00;66.10;;;;;;5084313;28;19947;-36
2023/07/26 02:33:18;;;;;;;;;;;24.00;66.20;;;;;;5083326;28;19923;-37
2023/07/26 02:35:44;;;;;;;;;;;24.00;66.30;;;;;;5083887;28;19912;-37
2023/07/26 02:38:10;;;;;;;;;;;24.00;66.30;;;;;;5080534;28;19918;-37
2023/07/26 02:40:37;;;;;;;;;;;24.00;66.40;;;;;;5063331;28;19912;-37
2023/07/26 02:43:02;;;;;;;;;;;24.00;66.40;;;;;;5076227;28;19912;-37
2023/07/26 02:45:29;;;;;;;;;;;24.10;66.50;;;;;;5083830;28;19908;-46
2023/07/26 02:47:55;;;;;;;;;;;24.00;66.50;;;;;;5084099;28;19917;-37
2023/07/26 02:50:22;;;;;;;;;;;24.00;66.50;;;;;;5083453;28;19926;-37
2023/07/26 02:52:48;;;;;;;;;;;24.10;66.50;;;;;;5084015;28;20385;-37
2023/07/26 02:55:14;;;;;;;;;;;24.10;66.60;;;;;;5083484;28;19919;-37
2023/07/26 02:57:40;;;;;;;;;;;24.10;66.70;;;;;;5083705;28;20062;-37
2023/07/26 03:00:06;;;;;;;;;;;24.10;66.90;;;;;;5083164;28;19908;-37
2023/07/26 03:02:32;;;;;;;;;;;24.10;67.00;;;;;;5078619;28;19934;-36
2023/07/26 03:04:58;;;;;;;;;;;24.10;67.40;;;;;;5083554;28;19943;-37
2023/07/26 03:07:24;;;;;;;;;;;24.10;67.20;;;;;;5077509;28;19905;-36
2023/07/26 03:09:50;;;;;;;;;;;24.10;67.30;;;;;;5083533;28;19920;-37
2023/07/26 03:12:17;;;;;;;;;;;24.10;67.50;;;;;;5082644;28;19912;-37
2023/07/26 03:14:43;;;;;;;;;;;24.10;67.50;;;;;;5083493;28;19908;-36
2023/07/26 03:17:09;;;;;;;;;;;24.10;67.60;;;;;;5083548;28;19969;-37
2023/07/26 03:19:35;;;;;;;;;;;24.10;67.70;;;;;;5083153;28;19931;-37
2023/07/26 03:22:01;;;;;;;;;;;24.20;67.80;;;;;;5083230;28;19909;-37
2023/07/26 03:24:27;;;;;;;;;;;24.20;67.80;;;;;;5083343;28;19912;-37
2023/07/26 03:26:53;;;;;;;;;;;24.20;67.70;;;;;;5083135;28;19962;-37
2023/07/26 03:29:19;;;;;;;;;;;24.20;67.70;;;;;;5083359;28;20006;-37
2023/07/26 03:31:45;;;;;;;;;;;24.20;67.60;;;;;;5082764;28;19938;-37
2023/07/26 03:34:11;;;;;;;;;;;24.20;67.50;;;;;;5083281;28;19915;-37
2023/07/26 03:36:36;;;;;;;;;;;24.20;67.50;;;;;;5082697;28;19911;-39
2023/07/26 03:39:02;;;;;;;;;;;24.20;67.50;;;;;;5062720;28;20540;-37
2023/07/26 03:41:28;;;;;;;;;;;24.20;67.60;;;;;;5082644;28;19909;-37
2023/07/26 03:43:54;;;;;;;;;;;24.20;68.00;;;;;;5083293;28;19934;-37
2023/07/26 03:46:20;;;;;;;;;;;24.20;68.00;;;;;;5082399;28;20390;-37
2023/07/26 03:48:46;;;;;;;;;;;24.20;68.10;;;;;;5082767;28;19917;-38
2023/07/26 03:51:12;;;;;;;;;;;24.20;68.40;;;;;;5081320;28;19936;-37
2023/07/26 03:53:37;;;;;;;;;;;24.20;68.60;;;;;;5082695;28;19916;-38
2023/07/26 03:56:03;;;;;;;;;;;24.20;68.70;;;;;;5083116;28;19934;-37
2023/07/26 03:58:29;;;;;;;;;;;24.20;68.60;;;;;;5082008;28;19919;-37
2023/07/26 04:00:55;;;;;;;;;;;24.20;68.80;;;;;;5082293;28;19947;-38
2023/07/26 04:03:21;;;;;;;;;;;24.20;68.70;;;;;;5082237;28;19962;-37
2023/07/26 04:05:47;;;;;;;;;;;24.20;68.60;;;;;;5079925;28;19909;-37
2023/07/26 04:08:13;;;;;;;;;;;24.20;68.60;;;;;;5082251;28;19912;-37
2023/07/26 04:10:41;;;;;;;;;;;24.20;68.60;;;;;;5077007;28;19971;-37
2023/07/26 04:13:07;;;;;;;;;;;24.20;68.40;;;;;;5077903;28;19999;-38
2023/07/26 04:15:32;;;;;;;;;;;24.20;68.30;;;;;;5082298;28;19916;-37
2023/07/26 04:17:58;;;;;;;;;;;24.20;68.20;;;;;;5082440;28;20314;-37
2023/07/26 04:20:24;;;;;;;;;;;24.20;68.10;;;;;;5082426;28;19912;-37
2023/07/26 04:22:50;;;;;;;;;;;24.20;68.00;;;;;;5081226;28;19912;-37
2023/07/26 04:25:16;;;;;;;;;;;24.20;68.00;;;;;;5080545;28;19961;-37
2023/07/26 04:27:42;;;;;;;;;;;24.20;68.20;;;;;;5082423;28;19912;-37
2023/07/26 04:30:08;;;;;;;;;;;24.20;68.70;;;;;;5080445;28;19917;-38
2023/07/26 04:32:33;;;;;;;;;;;24.20;68.80;;;;;;5081239;28;19912;-37
2023/07/26 04:34:59;;;;;;;;;;;24.20;68.90;;;;;;5082375;28;19919;-38
2023/07/26 04:37:25;;;;;;;;;;;24.20;69.10;;;;;;5081701;28;19943;-38
2023/07/26 04:39:51;;;;;;;;;;;24.20;69.00;;;;;;5082218;28;19930;-37
2023/07/26 04:42:17;;;;;;;;;;;24.20;69.00;;;;;;5081614;28;19919;-37
2023/07/26 04:44:43;;;;;;;;;;;24.20;69.10;;;;;;5082396;28;19913;-37
2023/07/26 04:47:09;;;;;;;;;;;24.20;69.10;;;;;;5081183;28;20395;-37
2023/07/26 04:49:35;;;;;;;;;;;24.20;69.10;;;;;;5080808;28;19924;-37
2023/07/26 04:52:01;;;;;;;;;;;24.20;68.80;;;;;;5081865;28;19912;-37
2023/07/26 04:54:27;;;;;;;;;;;24.20;68.60;;;;;;5081831;28;19912;-37
2023/07/26 04:56:53;;;;;;;;;;;24.20;68.50;;;;;;5079211;28;19920;-37
2023/07/26 04:59:18;;;;;;;;;;;24.20;68.20;;;;;;5081762;28;19912;-36
2023/07/26 05:01:44;;;;;;;;;;;24.20;68.00;;;;;;5081698;28;19916;-37
2023/07/26 05:04:10;;;;;;;;;;;24.20;67.90;;;;;;5081911;28;19914;-37
2023/07/26 05:06:36;;;;;;;;;;;24.20;67.50;;;;;;5081578;28;19934;-37
2023/07/26 05:09:04;;;;;;;;;;;24.20;67.30;;;;;;5081434;28;19920;-37
2023/07/26 05:11:31;;;;;;;;;;;24.20;67.40;;;;;;5080760;28;19920;-37
2023/07/26 05:13:57;;;;;;;;;;;24.20;68.20;;;;;;5081918;28;20270;-37
2023/07/26 05:16:22;;;;;;;;;;;24.20;68.70;;;;;;5082180;28;20570;-37
2023/07/26 05:18:48;;;;;;;;;;;24.20;68.80;;;;;;5081942;28;20407;-37
2023/07/26 05:21:14;;;;;;;;;;;24.20;68.80;;;;;;5081722;28;19912;-37
2023/07/26 05:23:40;;;;;;;;;;;24.20;68.90;;;;;;5082558;28;19947;-37
2023/07/26 05:26:06;;;;;;;;;;;24.20;68.90;;;;;;5085425;28;19912;-37
2023/07/26 05:28:32;;;;;;;;;;;24.20;69.00;;;;;;5084584;28;19948;-36
2023/07/26 05:30:58;;;;;;;;;;;24.20;69.00;;;;;;5083004;28;20536;-37
2023/07/26 05:33:23;;;;;;;;;;;24.20;69.00;;;;;;5085001;28;19908;-37
2023/07/26 05:35:49;;;;;;;;;;;24.20;69.00;;;;;;5085653;28;19912;-37
2023/07/26 05:38:15;;;;;;;;;;;24.20;68.70;;;;;;5081508;28;19916;-37
2023/07/26 05:40:41;;;;;;;;;;;24.10;68.50;;;;;;5085150;28;19973;-37
2023/07/26 05:43:07;;;;;;;;;;;24.20;68.40;;;;;;5085069;28;19958;-37
2023/07/26 05:45:33;;;;;;;;;;;24.10;68.20;;;;;;5085105;28;19916;-36
2023/07/26 05:47:59;;;;;;;;;;;24.20;68.20;;;;;;5085029;28;19913;-37
2023/07/26 05:50:24;;;;;;;;;;;24.20;68.10;;;;;;5084778;28;20011;-37
2023/07/26 05:52:50;;;;;;;;;;;24.10;68.00;;;;;;5084925;28;19913;-37
2023/07/26 05:55:16;;;;;;;;;;;24.20;68.20;;;;;;5084776;28;20430;-37
2023/07/26 05:57:42;;;;;;;;;;;24.20;68.60;;;;;;5084333;28;19919;-37
2023/07/26 06:00:08;;;;;;;;;;;24.10;68.80;;;;;;5084801;28;20016;-37
2023/07/26 06:02:34;;;;;;;;;;;24.10;68.90;;;;;;5084759;28;19991;-37
2023/07/26 06:05:00;;;;;;;;;;;24.10;69.00;;;;;;5083048;28;19997;-37
2023/07/26 06:07:26;;;;;;;;;;;24.10;69.10;;;;;;5082453;28;19912;-37
2023/07/26 06:09:52;;;;;;;;;;;24.10;69.20;;;;;;5084609;28;19920;-37
2023/07/26 06:12:17;;;;;;;;;;;24.10;69.20;;;;;;5084553;28;19913;-37
2023/07/26 06:14:43;;;;;;;;;;;24.10;69.20;;;;;;5084165;28;19931;-37
2023/07/26 06:17:11;;;;;;;;;;;24.10;69.20;;;;;;5084152;28;19912;-37
2023/07/26 06:19:37;;;;;;;;;;;24.10;69.10;;;;;;5084362;28;19912;-37
2023/07/26 06:22:05;;;;;;;;;;;24.10;68.90;;;;;;5084681;28;19966;-37
2023/07/26 06:24:30;;;;;;;;;;;24.10;68.70;;;;;;5084158;28;20446;-37
2023/07/26 06:26:56;;;;;;;;;;;24.10;68.70;;;;;;5084256;28;19913;-37
2023/07/26 06:29:22;;;;;;;;;;;24.10;68.60;;;;;;5074249;28;19919;-37
2023/07/26 06:31:48;;;;;;;;;;;24.10;68.60;;;;;;5084510;28;19919;-37
2023/07/26 06:34:14;;;;;;;;;;;24.10;68.60;;;;;;5081859;28;19912;-37
2023/07/26 06:36:40;;;;;;;;;;;24.10;68.70;;;;;;5084281;28;19920;-36
2023/07/26 06:39:06;;;;;;;;;;;24.10;68.70;;;;;;5083752;28;19916;-37
2023/07/26 06:41:32;;;;;;;;;;;24.10;68.90;;;;;;5084002;28;19912;-37
2023/07/26 06:43:58;;;;;;;;;;;24.10;69.20;;;;;;5083715;28;19912;-37
2023/07/26 06:46:24;;;;;;;;;;;24.10;69.20;;;;;;5083973;28;20329;-37
2023/07/26 06:48:50;;;;;;;;;;;24.10;69.40;;;;;;5083774;28;19955;-37
2023/07/26 06:51:15;;;;;;;;;;;24.10;69.50;;;;;;5083892;28;19924;-37
2023/07/26 06:54:01;;;;;;;;;;;24.10;69.50;;;;;;5082799;28;19919;-37
2023/07/26 06:56:27;;;;;;;;;;;24.00;69.50;;;;;;5000835;28;19953;-37
2023/07/26 06:58:53;;;;;;;;;;;24.00;69.60;;;;;;5001880;28;19920;-37
2023/07/26 07:01:20;;;;;;;;;;;24.00;69.60;;;;;;5000869;28;19914;-37
2023/07/26 07:03:46;;;;;;;;;;;24.00;69.40;;;;;;4997839;28;20425;-37
2023/07/26 07:06:13;;;;;;;;;;;24.00;69.10;;;;;;5001850;28;19914;-37
2023/07/26 07:08:39;;;;;;;;;;;24.00;69.00;;;;;;4997716;28;20069;-37
2023/07/26 07:11:05;;;;;;;;;;;24.00;69.70;;;;;;5001529;28;19930;-37
2023/07/26 07:13:37;;;;;;;;;;;24.00;68.90;;;;;;5001367;28;19913;-37
2023/07/26 07:16:06;;;;;;;;;;;24.00;68.90;;;;;;5001344;28;19992;-37
2023/07/26 07:18:32;;;;;;;;;;;24.00;69.00;;;;;;5000842;28;19910;-36
2023/07/26 07:21:00;;;;;;;;;;;24.00;68.90;;;;;;5003885;28;19960;-37
2023/07/26 07:23:25;;;;;;;;;;;24.00;69.40;;;;;;5001335;28;19977;-37
2023/07/26 07:25:51;;;;;;;;;;;24.00;69.30;;;;;;5001317;28;19964;-36
2023/07/26 07:28:17;;;;;;;;;;;24.00;69.30;;;;;;5000697;28;19913;-37
2023/07/26 07:30:43;;;;;;;;;;;24.00;69.50;;;;;;4999646;28;19945;-37
2023/07/26 07:33:09;;;;;;;;;;;24.00;69.50;;;;;;5026354;28;19959;-37
2023/07/26 07:35:35;;;;;;;;;;;24.00;69.60;;;;;;5082662;28;19916;-37
2023/07/26 07:38:01;;;;;;;;;;;24.00;69.80;;;;;;5082798;28;19916;-37
2023/07/26 07:40:27;;;;;;;;;;;24.00;69.60;;;;;;5082301;28;19912;-37
2023/07/26 07:42:53;;;;;;;;;;;24.00;70.30;;;;;;5083033;28;19912;-37
2023/07/26 07:45:19;;;;;;;;;;;24.00;69.60;;;;;;5082588;28;19918;-37
2023/07/26 07:47:45;;;;;;;;;;;24.00;69.50;;;;;;5082092;28;19938;-37
2023/07/26 07:50:11;;;;;;;;;;;24.00;69.50;;;;;;5082633;28;20709;-37
2023/07/26 07:52:37;;;;;;;;;;;23.90;69.20;;;;;;5082508;28;19912;-37
2023/07/26 07:55:03;;;;;;;;;;;23.90;69.30;;;;;;5082343;28;19912;-37
2023/07/26 07:57:29;;;;;;;;;;;24.00;69.30;;;;;;5081973;28;19912;-37
2023/07/26 07:59:54;;;;;;;;;;;23.90;69.20;;;;;;5082511;28;19978;-37
2023/07/26 08:02:20;;;;;;;;;;;23.90;69.20;;;;;;5075667;28;19916;-37
2023/07/26 08:04:46;;;;;;;;;;;23.90;69.20;;;;;;5082320;28;19939;-37
2023/07/26 08:07:12;;;;;;;;;;;23.90;69.20;;;;;;5082356;28;20623;-37
2023/07/26 08:09:40;;;;;;;;;;;23.90;69.40;;;;;;5082276;28;19924;-37
2023/07/26 08:12:06;;;;;;;;;;;23.90;69.60;;;;;;5082716;28;19908;-37
2023/07/26 08:14:32;;;;;;;;;;;23.90;69.60;;;;;;5082360;28;19908;-37
2023/07/26 08:16:58;;;;;;;;;;;23.90;69.60;;;;;;5082362;28;19955;-37
2023/07/26 08:19:24;;;;;;;;;;;23.90;69.60;;;;;;5081684;28;20570;-37
2023/07/26 08:21:50;;;;;;;;;;;23.90;69.70;;;;;;5078702;28;19916;-37
2023/07/26 08:24:16;;;;;;;;;;;23.90;69.70;;;;;;5080681;28;19946;-37
2023/07/26 08:26:41;;;;;;;;;;;23.90;69.80;;;;;;5081962;28;19912;-37
2023/07/26 08:29:07;;;;;;;;;;;23.80;69.60;;;;;;5082293;28;19915;-37
2023/07/26 08:31:33;;;;;;;;;;;23.80;69.60;;;;;;5074266;28;19943;-37
2023/07/26 08:33:59;;;;;;;;;;;23.80;69.50;;;;;;5080795;28;19912;-37
2023/07/26 08:36:25;;;;;;;;;;;23.80;69.50;;;;;;5081041;28;19912;-37
2023/07/26 08:38:51;;;;;;;;;;;23.80;69.50;;;;;;5082142;28;19908;-37
2023/07/26 08:41:17;;;;;;;;;;;23.80;69.50;;;;;;5082191;28;19912;-36
2023/07/26 08:43:43;;;;;;;;;;;23.80;69.40;;;;;;5064319;28;19947;-37
2023/07/26 08:46:08;;;;;;;;;;;23.80;69.50;;;;;;5082346;28;19990;-38
2023/07/26 08:48:35;;;;;;;;;;;23.80;69.40;;;;;;5081238;28;19972;-38
2023/07/26 08:51:01;;;;;;;;;;;23.80;69.60;;;;;;5078543;28;19950;-37
2023/07/26 08:53:30;;;;;;;;;;;23.80;70.30;;;;;;5081829;28;19912;-37
2023/07/26 08:55:55;;;;;;;;;;;23.80;69.80;;;;;;5082301;28;19912;-37
2023/07/26 08:58:21;;;;;;;;;;;23.80;69.80;;;;;;5081634;28;19912;-37
2023/07/26 09:00:47;;;;;;;;;;;23.80;69.90;;;;;;5086347;28;19916;-37
2023/07/26 09:03:13;;;;;;;;;;;23.80;70.00;;;;;;5067554;28;19920;-37
2023/07/26 09:05:39;;;;;;;;;;;23.80;70.00;;;;;;5061190;28;19944;-37
2023/07/26 09:08:05;;;;;;;;;;;23.80;70.10;;;;;;5085599;28;19917;-39
2023/07/26 09:10:31;;;;;;;;;;;23.70;70.00;;;;;;5085606;28;19917;-37
2023/07/26 09:13:10;;;;;;;;;;;23.70;69.90;;;;;;5085811;28;19955;-37
2023/07/26 09:15:37;;;;;;;;;;;23.70;69.70;;;;;;5085757;28;20297;-37
2023/07/26 09:18:05;;;;;;;;;;;23.70;69.70;;;;;;5085289;28;19913;-37
2023/07/26 09:20:31;;;;;;;;;;;23.70;69.80;;;;;;5084096;28;19975;-37
2023/07/26 09:23:04;;;;;;;;;;;23.70;69.70;;;;;;5085857;28;19955;-37
2023/07/26 09:25:34;;;;;;;;;;;23.70;69.80;;;;;;5085327;28;19995;-37
2023/07/26 09:28:00;;;;;;;;;;;23.70;69.80;;;;;;5085323;28;19912;-37
2023/07/26 09:30:27;;;;;;;;;;;23.70;69.80;;;;;;5085302;28;19921;-37
2023/07/26 09:32:53;;;;;;;;;;;23.70;69.80;;;;;;5083787;28;19957;-37
2023/07/26 09:35:19;;;;;;;;;;;23.70;69.90;;;;;;5085433;28;19908;-37
2023/07/26 09:37:45;;;;;;;;;;;23.70;70.00;;;;;;5081626;28;20007;-37
2023/07/26 09:40:11;;;;;;;;;;;23.70;70.00;;;;;;5085461;28;19938;-37
2023/07/26 09:42:44;;;;;;;;;;;23.70;70.10;;;;;;5077303;28;19913;-37
2023/07/26 09:45:19;;;;;;;;;;;23.70;70.00;;;;;;5084889;28;19956;-37
2023/07/26 09:47:46;;;;;;;;;;;23.70;70.30;;;;;;5084881;28;20401;-37
2023/07/26 09:50:28;;;;;;;;;;;23.70;70.40;;;;;;5084764;28;19955;-37
2023/07/26 09:52:54;;;;;;;;;;;23.70;70.50;;;;;;5074667;28;19912;-37
2023/07/26 09:55:24;;;;;;;;;;;23.70;70.20;;;;;;5085190;28;19913;-37
2023/07/26 09:57:53;;;;;;;;;;;23.70;70.30;;;;;;5078690;28;19912;-37
2023/07/26 10:00:19;;;;;;;;;;;23.60;70.30;;;;;;5084887;28;19944;-37
2023/07/26 10:02:45;;;;;;;;;;;23.60;70.10;;;;;;5084936;28;20371;-37
2023/07/26 10:05:12;;;;;;;;;;;23.60;70.10;;;;;;5084630;28;19934;-37
2023/07/26 10:07:38;;;;;;;;;;;23.60;70.10;;;;;;5063154;28;19912;-37
2023/07/26 10:10:04;;;;;;;;;;;23.60;70.20;;;;;;5083597;28;19920;-37
2023/07/26 10:12:30;;;;;;;;;;;23.60;70.10;;;;;;5084438;28;19913;-37
2023/07/26 10:14:56;;;;;;;;;;;23.60;70.20;;;;;;5085013;28;19947;-37
2023/07/26 10:17:22;;;;;;;;;;;23.60;70.10;;;;;;5081335;28;19975;-37
2023/07/26 10:19:47;;;;;;;;;;;23.60;70.30;;;;;;5081372;28;19919;-37
2023/07/26 10:22:13;;;;;;;;;;;23.60;70.40;;;;;;5084541;28;19908;-37
2023/07/26 10:24:40;;;;;;;;;;;23.60;70.40;;;;;;5084238;28;19954;-37
2023/07/26 10:27:06;;;;;;;;;;;23.60;70.40;;;;;;5084133;28;19918;-37
2023/07/26 10:29:32;;;;;;;;;;;23.60;70.50;;;;;;5082502;28;19951;-37
2023/07/26 10:32:04;;;;;;;;;;;23.60;70.40;;;;;;5084496;28;19912;-37
2023/07/26 10:34:30;;;;;;;;;;;23.60;70.60;;;;;;5084107;28;20751;-37
2023/07/26 10:36:56;;;;;;;;;;;23.60;70.40;;;;;;5078338;28;19920;-37
2023/07/26 10:39:34;;;;;;;;;;;23.60;70.50;;;;;;5082620;28;19958;-37
2023/07/26 10:42:01;;;;;;;;;;;23.50;70.30;;;;;;5063455;28;19946;-37
2023/07/26 10:44:27;;;;;;;;;;;23.50;70.40;;;;;;5050033;28;19928;-38
2023/07/26 10:46:54;;;;;;;;;;;23.50;70.20;;;;;;5065999;28;20002;-37
2023/07/26 10:49:27;;;;;;;;;;;23.50;70.40;;;;;;5083259;28;19919;-37
2023/07/26 10:51:57;;;;;;;;;;;23.50;70.30;;;;;;5077759;28;19967;-37
2023/07/26 10:54:39;;;;;;;;;;;23.50;70.30;;;;;;5083567;28;19912;-37
2023/07/26 10:57:17;;;;;;;;;;;23.50;70.40;;;;;;5083501;28;19952;-37
2023/07/26 10:59:50;;;;;;;;;;;23.50;70.30;;;;;;5083094;28;19983;-37
2023/07/26 11:02:16;;;;;;;;;;;23.50;70.40;;;;;;5083614;28;19943;-37
2023/07/26 11:04:42;;;;;;;;;;;23.50;70.50;;;;;;5083779;28;19908;-37
2023/07/26 11:07:10;;;;;;;;;;;23.50;70.60;;;;;;5080590;28;19913;-37
2023/07/26 11:09:36;;;;;;;;;;;23.50;70.60;;;;;;5080877;28;19925;-37
2023/07/26 11:12:03;;;;;;;;;;;23.50;70.60;;;;;;5083622;28;19938;-37
2023/07/26 11:14:30;;;;;;;;;;;23.50;70.60;;;;;;5083229;28;19919;-37
2023/07/26 11:16:58;;;;;;;;;;;23.50;70.70;;;;;;5083628;28;19913;-37
2023/07/26 11:19:24;;;;;;;;;;;23.50;70.70;;;;;;5081604;28;19912;-37
2023/07/26 11:21:49;;;;;;;;;;;23.50;70.70;;;;;;5082585;28;19957;-37
2023/07/26 11:24:15;;;;;;;;;;;23.40;70.50;;;;;;5083223;28;19939;-37
2023/07/26 11:26:45;;;;;;;;;;;23.50;70.60;;;;;;5082672;28;19912;-37
2023/07/26 11:29:11;;;;;;;;;;;23.40;70.40;;;;;;5083257;28;19913;-37
2023/07/26 11:31:37;;;;;;;;;;;23.40;70.60;;;;;;5082391;28;20003;-37
2023/07/26 11:34:14;;;;;;;;;;;23.40;70.50;;;;;;5083201;28;19912;-37
2023/07/26 11:36:40;;;;;;;;;;;23.40;70.60;;;;;;5060699;28;19912;-37
2023/07/26 11:39:07;;;;;;;;;;;23.40;70.50;;;;;;5082210;28;19920;-37
2023/07/26 11:41:33;;;;;;;;;;;23.40;70.60;;;;;;5082311;28;19913;-37
2023/07/26 11:43:59;;;;;;;;;;;23.40;70.80;;;;;;5077551;28;19927;-37
2023/07/26 11:46:25;;;;;;;;;;;23.40;70.80;;;;;;5062246;28;20037;-37
2023/07/26 11:48:53;;;;;;;;;;;23.40;70.70;;;;;;5083127;28;19908;-37
2023/07/26 11:51:19;;;;;;;;;;;23.40;70.80;;;;;;5061681;28;19920;-36
2023/07/26 11:53:47;;;;;;;;;;;23.40;70.90;;;;;;5082906;28;19916;-37
2023/07/26 11:56:13;;;;;;;;;;;23.40;70.90;;;;;;5083055;28;20482;-37
2023/07/26 11:58:40;;;;;;;;;;;23.40;70.90;;;;;;5082530;28;19939;-37
2023/07/26 12:01:06;;;;;;;;;;;23.40;70.90;;;;;;5064261;28;19912;-37
2023/07/26 12:03:32;;;;;;;;;;;23.40;70.90;;;;;;5082193;28;19908;-37
2023/07/26 12:05:58;;;;;;;;;;;23.40;70.90;;;;;;5082712;28;20456;-37
2023/07/26 12:08:23;;;;;;;;;;;23.40;70.80;;;;;;5078381;28;19912;-36
2023/07/26 12:10:49;;;;;;;;;;;23.30;70.70;;;;;;5082209;28;19927;-37
2023/07/26 12:13:19;;;;;;;;;;;23.40;70.90;;;;;;5076111;28;20036;-37
2023/07/26 12:15:51;;;;;;;;;;;23.30;70.80;;;;;;5082431;28;20022;-37
2023/07/26 12:18:17;;;;;;;;;;;23.30;70.80;;;;;;5081818;28;19979;-37
2023/07/26 12:20:56;;;;;;;;;;;23.30;70.80;;;;;;5073365;28;19908;-37
2023/07/26 12:23:23;;;;;;;;;;;23.30;70.80;;;;;;5079889;28;19908;-37
2023/07/26 12:25:51;;;;;;;;;;;23.30;71.00;;;;;;5082750;28;19934;-38
2023/07/26 12:28:17;;;;;;;;;;;23.30;71.00;;;;;;5081789;28;19928;-37
2023/07/26 12:30:51;;;;;;;;;;;23.30;71.00;;;;;;5082270;28;20022;-37
2023/07/26 12:33:17;;;;;;;;;;;23.30;71.10;;;;;;5081262;28;20023;-37
2023/07/26 12:35:46;;;;;;;;;;;23.30;71.10;;;;;;5074574;28;19973;-37
2023/07/26 12:38:12;;;;;;;;;;;23.30;71.10;;;;;;5082434;28;19908;-37
2023/07/26 12:40:38;;;;;;;;;;;23.30;71.30;;;;;;5080015;28;19919;-37
2023/07/26 12:43:19;;;;;;;;;;;23.30;71.40;;;;;;5082267;28;19932;-37
2023/07/26 12:45:45;;;;;;;;;;;23.30;71.50;;;;;;5074945;28;19917;-37
2023/07/26 12:48:11;;;;;;;;;;;23.30;71.50;;;;;;5081475;28;19997;-37
2023/07/26 12:50:39;;;;;;;;;;;23.30;71.50;;;;;;5081704;28;19920;-37
2023/07/26 12:53:06;;;;;;;;;;;23.30;71.50;;;;;;5082585;28;19912;-38
2023/07/26 12:55:35;;;;;;;;;;;23.30;71.50;;;;;;5081730;28;19915;-37
2023/07/26 12:58:00;;;;;;;;;;;23.30;71.50;;;;;;5082296;28;19913;-37
2023/07/26 13:00:26;;;;;;;;;;;23.30;71.60;;;;;;5081667;28;19947;-37
2023/07/26 13:02:52;;;;;;;;;;;23.30;71.60;;;;;;5082105;28;19934;-37
2023/07/26 13:05:18;;;;;;;;;;;23.30;71.60;;;;;;5081625;28;19915;-37
2023/07/26 13:07:53;;;;;;;;;;;23.30;71.70;;;;;;5081568;28;19972;-37
2023/07/26 13:10:20;;;;;;;;;;;23.30;71.80;;;;;;5080706;28;20529;-37
2023/07/26 13:12:46;;;;;;;;;;;23.30;71.80;;;;;;5079482;28;20626;-37
2023/07/26 13:15:12;;;;;;;;;;;23.40;72.00;;;;;;5082090;28;19930;-37
2023/07/26 13:17:38;;;;;;;;;;;23.40;72.00;;;;;;5081627;28;19947;-37
2023/07/26 13:20:04;;;;;;;;;;;23.40;71.90;;;;;;5081956;28;19955;-37
2023/07/26 13:22:30;;;;;;;;;;;23.40;72.00;;;;;;5081136;28;19968;-37
2023/07/26 13:24:56;;;;;;;;;;;23.40;71.90;;;;;;5081920;28;19935;-37
2023/07/26 13:27:22;;;;;;;;;;;23.40;72.80;;;;;;5080945;28;19909;-37
2023/07/26 13:29:48;;;;;;;;;;;23.40;72.20;;;;;;5081920;28;20574;-37
2023/07/26 13:32:14;;;;;;;;;;;23.40;72.00;;;;;;5081629;28;19955;-37
2023/07/26 13:34:40;;;;;;;;;;;23.40;72.30;;;;;;5077115;28;19915;-37
2023/07/26 13:37:06;;;;;;;;;;;23.40;72.50;;;;;;5079190;28;20124;-37
2023/07/26 13:39:32;;;;;;;;;;;23.50;72.70;;;;;;5080528;28;19920;-37
2023/07/26 13:41:58;;;;;;;;;;;23.50;73.40;;;;;;5081270;28;20007;-37
2023/07/26 13:44:24;;;;;;;;;;;23.50;72.70;;;;;;5081818;28;19912;-37
2023/07/26 13:46:50;;;;;;;;;;;23.50;72.70;;;;;;5085137;28;19912;-37
2023/07/26 13:49:16;;;;;;;;;;;23.50;72.60;;;;;;5080771;28;19917;-37
2023/07/26 13:51:42;;;;;;;;;;;23.50;73.00;;;;;;5084746;28;19912;-37
2023/07/26 13:54:08;;;;;;;;;;;23.50;72.90;;;;;;5085148;28;20024;-38
2023/07/26 13:56:33;;;;;;;;;;;23.60;73.20;;;;;;5085044;28;20650;-37
2023/07/26 13:58:59;;;;;;;;;;;23.60;73.40;;;;;;5085215;28;19934;-37
2023/07/26 14:01:28;;;;;;;;;;;23.60;73.30;;;;;;5084013;28;19984;-37
2023/07/26 14:03:54;;;;;;;;;;;23.60;73.40;;;;;;5084755;28;19913;-38
2023/07/26 14:06:20;;;;;;;;;;;23.60;73.40;;;;;;5084715;28;19955;-37
2023/07/26 14:08:46;;;;;;;;;;;23.60;73.20;;;;;;5082050;28;19932;-37
2023/07/26 14:11:12;;;;;;;;;;;23.60;73.30;;;;;;5084809;28;19923;-37
2023/07/26 14:13:39;;;;;;;;;;;23.70;73.50;;;;;;5084463;28;20444;-37